Wyatte, Mississippi
Current Conditions -  °F | °C
As of 6:35 AM on Monday 24 Nov 2014 (Local Time) from KUOX Reporting Station
Overcast Overcast  
Wind Chill: 50°   Ceiling: 3900
Heat Index: 50°   Visibility: 10mi
Dew Point: 41°   Wind: 8mph
Humidity: 71%   Direction: 270°W
Pressure: 29.76"   Gusts: 25mph
Location:  34.6336°N, 89.8203°W
Report Text: KUOX 241235Z AUTO 27007G22KT 10SM SCT023 OVC039 10/05 A2976 RMK AO2 PWINO PNO
Loading
Personal Weather Stations






























Interactive Weather Map New forecast layout! Learn more

10-Day Weather Forecast

Advertisements
Track Severe Weather on mobile